sensor_id;sensor_type;location;lat;lon;timestamp;P1;durP1;ratioP1;P2;durP2;ratioP2
84713;SDS011;74938;42.658;23.248;2024-02-23T00:00:58;14.05;;;7.22;;
84713;SDS011;74938;42.658;23.248;2024-02-23T00:03:23;13.07;;;6.47;;
84713;SDS011;74938;42.658;23.248;2024-02-23T00:05:48;12.65;;;6.78;;
84713;SDS011;74938;42.658;23.248;2024-02-23T00:08:14;13.57;;;6.90;;
84713;SDS011;74938;42.658;23.248;2024-02-23T00:10:39;14.88;;;6.78;;
84713;SDS011;74938;42.658;23.248;2024-02-23T00:13:05;17.52;;;7.18;;
84713;SDS011;74938;42.658;23.248;2024-02-23T00:15:30;16.17;;;7.85;;
84713;SDS011;74938;42.658;23.248;2024-02-23T00:17:55;13.45;;;6.43;;
84713;SDS011;74938;42.658;23.248;2024-02-23T00:20:21;15.73;;;6.93;;
84713;SDS011;74938;42.658;23.248;2024-02-23T00:22:46;12.38;;;6.57;;
84713;SDS011;74938;42.658;23.248;2024-02-23T00:25:11;15.93;;;7.55;;
84713;SDS011;74938;42.658;23.248;2024-02-23T00:27:37;15.18;;;7.13;;
84713;SDS011;74938;42.658;23.248;2024-02-23T00:30:04;10.85;;;5.78;;
84713;SDS011;74938;42.658;23.248;2024-02-23T00:32:30;11.93;;;5.47;;
84713;SDS011;74938;42.658;23.248;2024-02-23T00:34:56;14.43;;;6.40;;
84713;SDS011;74938;42.658;23.248;2024-02-23T00:37:22;15.77;;;6.78;;
84713;SDS011;74938;42.658;23.248;2024-02-23T00:39:47;11.52;;;5.78;;
84713;SDS011;74938;42.658;23.248;2024-02-23T00:42:13;11.95;;;5.93;;
84713;SDS011;74938;42.658;23.248;2024-02-23T00:44:38;14.23;;;7.50;;
84713;SDS011;74938;42.658;23.248;2024-02-23T00:47:03;13.30;;;6.05;;
84713;SDS011;74938;42.658;23.248;2024-02-23T00:49:29;14.32;;;7.40;;
84713;SDS011;74938;42.658;23.248;2024-02-23T00:51:55;13.20;;;6.35;;
84713;SDS011;74938;42.658;23.248;2024-02-23T00:54:20;14.18;;;6.05;;
84713;SDS011;74938;42.658;23.248;2024-02-23T00:56:46;14.93;;;5.68;;
84713;SDS011;74938;42.658;23.248;2024-02-23T00:59:12;15.20;;;6.68;;
84713;SDS011;74938;42.658;23.248;2024-02-23T01:01:37;18.63;;;8.15;;
84713;SDS011;74938;42.658;23.248;2024-02-23T01:04:02;12.82;;;6.15;;
84713;SDS011;74938;42.658;23.248;2024-02-23T01:06:28;13.23;;;6.60;;
84713;SDS011;74938;42.658;23.248;2024-02-23T01:08:53;12.55;;;5.38;;
84713;SDS011;74938;42.658;23.248;2024-02-23T01:11:19;12.55;;;6.28;;
84713;SDS011;74938;42.658;23.248;2024-02-23T01:13:44;14.85;;;6.00;;
84713;SDS011;74938;42.658;23.248;2024-02-23T01:16:09;13.73;;;6.93;;
84713;SDS011;74938;42.658;23.248;2024-02-23T01:18:35;11.77;;;5.93;;
84713;SDS011;74938;42.658;23.248;2024-02-23T01:21:00;12.55;;;6.32;;
84713;SDS011;74938;42.658;23.248;2024-02-23T01:23:26;10.70;;;5.47;;
84713;SDS011;74938;42.658;23.248;2024-02-23T01:25:51;14.07;;;6.70;;
84713;SDS011;74938;42.658;23.248;2024-02-23T01:28:17;12.63;;;6.18;;
84713;SDS011;74938;42.658;23.248;2024-02-23T01:30:42;11.50;;;5.80;;
84713;SDS011;74938;42.658;23.248;2024-02-23T01:33:08;14.13;;;6.00;;
84713;SDS011;74938;42.658;23.248;2024-02-23T01:35:33;14.35;;;6.28;;
84713;SDS011;74938;42.658;23.248;2024-02-23T01:37:59;12.13;;;6.18;;
84713;SDS011;74938;42.658;23.248;2024-02-23T01:40:24;12.35;;;6.10;;
84713;SDS011;74938;42.658;23.248;2024-02-23T01:42:59;10.05;;;5.43;;
84713;SDS011;74938;42.658;23.248;2024-02-23T01:45:28;12.35;;;6.03;;
84713;SDS011;74938;42.658;23.248;2024-02-23T01:47:55;11.35;;;5.60;;
84713;SDS011;74938;42.658;23.248;2024-02-23T01:50:20;11.38;;;6.07;;
84713;SDS011;74938;42.658;23.248;2024-02-23T01:52:46;12.40;;;5.03;;
84713;SDS011;74938;42.658;23.248;2024-02-23T01:55:11;11.25;;;5.40;;
84713;SDS011;74938;42.658;23.248;2024-02-23T01:57:36;13.82;;;6.22;;
84713;SDS011;74938;42.658;23.248;2024-02-23T02:00:02;14.07;;;6.82;;
84713;SDS011;74938;42.658;23.248;2024-02-23T02:02:29;12.10;;;6.22;;
84713;SDS011;74938;42.658;23.248;2024-02-23T02:04:55;9.52;;;4.50;;
84713;SDS011;74938;42.658;23.248;2024-02-23T02:07:20;11.20;;;5.43;;
84713;SDS011;74938;42.658;23.248;2024-02-23T02:09:47;9.13;;;5.25;;
84713;SDS011;74938;42.658;23.248;2024-02-23T02:12:13;11.75;;;6.03;;
84713;SDS011;74938;42.658;23.248;2024-02-23T02:14:38;10.40;;;4.97;;
84713;SDS011;74938;42.658;23.248;2024-02-23T02:17:04;12.02;;;5.93;;
84713;SDS011;74938;42.658;23.248;2024-02-23T02:19:29;11.10;;;5.95;;
84713;SDS011;74938;42.658;23.248;2024-02-23T02:21:55;12.05;;;5.47;;
84713;SDS011;74938;42.658;23.248;2024-02-23T02:24:21;8.70;;;4.50;;
84713;SDS011;74938;42.658;23.248;2024-02-23T02:26:46;10.95;;;5.10;;
84713;SDS011;74938;42.658;23.248;2024-02-23T02:29:15;12.30;;;5.35;;
84713;SDS011;74938;42.658;23.248;2024-02-23T02:31:40;13.27;;;6.38;;
84713;SDS011;74938;42.658;23.248;2024-02-23T02:34:06;13.15;;;5.78;;
84713;SDS011;74938;42.658;23.248;2024-02-23T02:36:31;11.93;;;5.72;;
84713;SDS011;74938;42.658;23.248;2024-02-23T02:38:56;10.48;;;5.05;;
84713;SDS011;74938;42.658;23.248;2024-02-23T02:41:22;11.13;;;5.57;;
84713;SDS011;74938;42.658;23.248;2024-02-23T02:43:52;12.07;;;6.10;;
84713;SDS011;74938;42.658;23.248;2024-02-23T02:46:17;14.93;;;7.20;;
84713;SDS011;74938;42.658;23.248;2024-02-23T02:48:43;13.52;;;6.35;;
84713;SDS011;74938;42.658;23.248;2024-02-23T02:51:08;12.48;;;6.35;;
84713;SDS011;74938;42.658;23.248;2024-02-23T02:53:35;13.50;;;6.05;;
84713;SDS011;74938;42.658;23.248;2024-02-23T02:56:00;19.90;;;5.95;;
84713;SDS011;74938;42.658;23.248;2024-02-23T02:58:25;13.02;;;5.70;;
84713;SDS011;74938;42.658;23.248;2024-02-23T03:00:51;10.60;;;5.55;;
84713;SDS011;74938;42.658;23.248;2024-02-23T03:03:16;11.35;;;5.88;;
84713;SDS011;74938;42.658;23.248;2024-02-23T03:05:41;16.75;;;6.28;;
84713;SDS011;74938;42.658;23.248;2024-02-23T03:08:07;15.63;;;5.60;;
84713;SDS011;74938;42.658;23.248;2024-02-23T03:10:32;11.77;;;5.20;;
84713;SDS011;74938;42.658;23.248;2024-02-23T03:12:59;11.00;;;5.43;;
84713;SDS011;74938;42.658;23.248;2024-02-23T03:15:24;10.40;;;5.25;;
84713;SDS011;74938;42.658;23.248;2024-02-23T03:17:49;19.30;;;8.40;;
84713;SDS011;74938;42.658;23.248;2024-02-23T03:20:15;11.55;;;5.85;;
84713;SDS011;74938;42.658;23.248;2024-02-23T03:22:41;17.25;;;8.18;;
84713;SDS011;74938;42.658;23.248;2024-02-23T03:25:06;13.35;;;6.78;;
84713;SDS011;74938;42.658;23.248;2024-02-23T03:27:35;13.98;;;6.68;;
84713;SDS011;74938;42.658;23.248;2024-02-23T03:30:02;16.10;;;7.70;;
84713;SDS011;74938;42.658;23.248;2024-02-23T03:32:28;15.70;;;7.05;;
84713;SDS011;74938;42.658;23.248;2024-02-23T03:34:56;14.77;;;7.68;;
84713;SDS011;74938;42.658;23.248;2024-02-23T03:37:21;19.77;;;8.07;;
84713;SDS011;74938;42.658;23.248;2024-02-23T03:39:47;11.13;;;5.15;;
84713;SDS011;74938;42.658;23.248;2024-02-23T03:42:13;12.60;;;6.40;;
84713;SDS011;74938;42.658;23.248;2024-02-23T03:44:38;15.15;;;7.60;;
84713;SDS011;74938;42.658;23.248;2024-02-23T03:47:06;16.20;;;6.50;;
84713;SDS011;74938;42.658;23.248;2024-02-23T03:49:32;12.93;;;6.10;;
84713;SDS011;74938;42.658;23.248;2024-02-23T03:51:57;11.15;;;6.53;;
84713;SDS011;74938;42.658;23.248;2024-02-23T03:54:23;12.65;;;6.30;;
84713;SDS011;74938;42.658;23.248;2024-02-23T03:56:48;14.18;;;6.35;;
84713;SDS011;74938;42.658;23.248;2024-02-23T03:59:13;16.02;;;6.85;;
84713;SDS011;74938;42.658;23.248;2024-02-23T04:01:39;15.27;;;8.32;;
84713;SDS011;74938;42.658;23.248;2024-02-23T04:04:05;16.92;;;7.97;;
84713;SDS011;74938;42.658;23.248;2024-02-23T04:06:31;19.83;;;11.20;;
84713;SDS011;74938;42.658;23.248;2024-02-23T04:08:57;19.88;;;10.73;;
84713;SDS011;74938;42.658;23.248;2024-02-23T04:11:22;15.38;;;7.18;;
84713;SDS011;74938;42.658;23.248;2024-02-23T04:13:48;12.18;;;6.32;;
84713;SDS011;74938;42.658;23.248;2024-02-23T04:16:13;12.95;;;6.25;;
84713;SDS011;74938;42.658;23.248;2024-02-23T04:18:38;13.55;;;6.13;;
84713;SDS011;74938;42.658;23.248;2024-02-23T04:21:04;11.73;;;5.88;;
84713;SDS011;74938;42.658;23.248;2024-02-23T04:23:30;14.00;;;5.97;;
84713;SDS011;74938;42.658;23.248;2024-02-23T04:25:55;12.95;;;5.78;;
84713;SDS011;74938;42.658;23.248;2024-02-23T04:28:21;16.05;;;6.70;;
84713;SDS011;74938;42.658;23.248;2024-02-23T04:30:46;13.45;;;6.55;;
84713;SDS011;74938;42.658;23.248;2024-02-23T04:33:12;12.88;;;6.15;;
84713;SDS011;74938;42.658;23.248;2024-02-23T04:35:37;12.68;;;6.43;;
84713;SDS011;74938;42.658;23.248;2024-02-23T04:38:03;12.02;;;5.95;;
84713;SDS011;74938;42.658;23.248;2024-02-23T04:40:28;16.10;;;5.60;;
84713;SDS011;74938;42.658;23.248;2024-02-23T04:42:54;12.65;;;5.97;;
84713;SDS011;74938;42.658;23.248;2024-02-23T04:45:19;12.13;;;5.32;;
84713;SDS011;74938;42.658;23.248;2024-02-23T04:47:44;14.13;;;6.65;;
84713;SDS011;74938;42.658;23.248;2024-02-23T04:50:11;13.05;;;6.28;;
84713;SDS011;74938;42.658;23.248;2024-02-23T04:52:37;12.80;;;6.78;;
84713;SDS011;74938;42.658;23.248;2024-02-23T04:55:02;16.88;;;6.88;;
84713;SDS011;74938;42.658;23.248;2024-02-23T04:57:28;13.75;;;7.05;;
84713;SDS011;74938;42.658;23.248;2024-02-23T04:59:53;11.35;;;6.43;;
84713;SDS011;74938;42.658;23.248;2024-02-23T05:02:19;15.13;;;5.45;;
84713;SDS011;74938;42.658;23.248;2024-02-23T05:04:44;10.63;;;5.45;;
84713;SDS011;74938;42.658;23.248;2024-02-23T05:07:09;13.23;;;6.22;;
84713;SDS011;74938;42.658;23.248;2024-02-23T05:09:35;13.05;;;5.93;;
84713;SDS011;74938;42.658;23.248;2024-02-23T05:12:00;10.27;;;5.13;;
84713;SDS011;74938;42.658;23.248;2024-02-23T05:14:26;12.20;;;5.95;;
84713;SDS011;74938;42.658;23.248;2024-02-23T05:16:51;14.15;;;6.38;;
84713;SDS011;74938;42.658;23.248;2024-02-23T05:19:17;13.77;;;6.65;;
84713;SDS011;74938;42.658;23.248;2024-02-23T05:21:42;13.25;;;6.80;;
84713;SDS011;74938;42.658;23.248;2024-02-23T05:24:08;12.73;;;6.72;;
84713;SDS011;74938;42.658;23.248;2024-02-23T05:26:33;14.52;;;6.97;;
84713;SDS011;74938;42.658;23.248;2024-02-23T05:28:58;13.43;;;7.07;;
84713;SDS011;74938;42.658;23.248;2024-02-23T05:34:09;14.93;;;7.28;;
84713;SDS011;74938;42.658;23.248;2024-02-23T05:36:34;11.13;;;6.13;;
84713;SDS011;74938;42.658;23.248;2024-02-23T05:39:00;12.57;;;6.30;;
84713;SDS011;74938;42.658;23.248;2024-02-23T05:41:25;12.52;;;6.38;;
84713;SDS011;74938;42.658;23.248;2024-02-23T05:43:50;14.52;;;6.35;;
84713;SDS011;74938;42.658;23.248;2024-02-23T05:46:16;14.68;;;6.80;;
84713;SDS011;74938;42.658;23.248;2024-02-23T05:48:41;12.70;;;5.90;;
84713;SDS011;74938;42.658;23.248;2024-02-23T05:51:06;17.77;;;7.90;;
84713;SDS011;74938;42.658;23.248;2024-02-23T05:53:32;13.88;;;6.78;;
84713;SDS011;74938;42.658;23.248;2024-02-23T05:55:58;12.68;;;5.88;;
84713;SDS011;74938;42.658;23.248;2024-02-23T05:58:23;11.48;;;6.20;;
84713;SDS011;74938;42.658;23.248;2024-02-23T06:00:49;16.83;;;7.18;;
84713;SDS011;74938;42.658;23.248;2024-02-23T06:03:15;15.02;;;7.60;;
84713;SDS011;74938;42.658;23.248;2024-02-23T06:05:40;15.05;;;7.20;;
84713;SDS011;74938;42.658;23.248;2024-02-23T06:08:05;10.98;;;5.88;;
84713;SDS011;74938;42.658;23.248;2024-02-23T06:10:31;13.82;;;6.68;;
84713;SDS011;74938;42.658;23.248;2024-02-23T06:12:57;12.32;;;6.68;;
84713;SDS011;74938;42.658;23.248;2024-02-23T06:15:22;14.48;;;6.05;;
84713;SDS011;74938;42.658;23.248;2024-02-23T06:17:47;13.63;;;6.57;;
84713;SDS011;74938;42.658;23.248;2024-02-23T06:20:13;14.18;;;6.97;;
84713;SDS011;74938;42.658;23.248;2024-02-23T06:22:38;16.23;;;7.63;;
84713;SDS011;74938;42.658;23.248;2024-02-23T06:25:04;18.08;;;7.47;;
84713;SDS011;74938;42.658;23.248;2024-02-23T06:27:30;14.57;;;6.90;;
84713;SDS011;74938;42.658;23.248;2024-02-23T06:29:55;19.30;;;8.75;;
84713;SDS011;74938;42.658;23.248;2024-02-23T06:32:20;17.73;;;7.95;;
84713;SDS011;74938;42.658;23.248;2024-02-23T06:34:46;18.23;;;8.15;;
84713;SDS011;74938;42.658;23.248;2024-02-23T06:37:11;15.40;;;7.68;;
84713;SDS011;74938;42.658;23.248;2024-02-23T06:39:37;14.45;;;7.45;;
84713;SDS011;74938;42.658;23.248;2024-02-23T06:42:02;10.57;;;5.63;;
84713;SDS011;74938;42.658;23.248;2024-02-23T06:44:29;12.80;;;5.72;;
84713;SDS011;74938;42.658;23.248;2024-02-23T06:46:55;15.18;;;7.68;;
84713;SDS011;74938;42.658;23.248;2024-02-23T06:49:20;11.93;;;6.53;;
84713;SDS011;74938;42.658;23.248;2024-02-23T06:51:45;14.02;;;6.75;;
84713;SDS011;74938;42.658;23.248;2024-02-23T06:54:11;13.15;;;6.57;;
84713;SDS011;74938;42.658;23.248;2024-02-23T06:56:36;11.07;;;6.13;;
84713;SDS011;74938;42.658;23.248;2024-02-23T06:59:02;11.35;;;7.07;;
84713;SDS011;74938;42.658;23.248;2024-02-23T07:01:27;16.70;;;7.07;;
84713;SDS011;74938;42.658;23.248;2024-02-23T07:03:53;14.45;;;7.40;;
84713;SDS011;74938;42.658;23.248;2024-02-23T07:06:18;12.88;;;6.45;;
84713;SDS011;74938;42.658;23.248;2024-02-23T07:08:44;89.72;;;36.15;;
84713;SDS011;74938;42.658;23.248;2024-02-23T07:11:10;23.90;;;8.25;;
84713;SDS011;74938;42.658;23.248;2024-02-23T07:13:35;16.08;;;8.25;;
84713;SDS011;74938;42.658;23.248;2024-02-23T07:16:01;16.83;;;7.53;;
84713;SDS011;74938;42.658;23.248;2024-02-23T07:18:27;18.77;;;7.65;;
84713;SDS011;74938;42.658;23.248;2024-02-23T07:20:52;14.05;;;7.20;;
84713;SDS011;74938;42.658;23.248;2024-02-23T07:23:17;16.45;;;7.60;;
84713;SDS011;74938;42.658;23.248;2024-02-23T07:25:43;15.38;;;8.27;;
84713;SDS011;74938;42.658;23.248;2024-02-23T07:28:08;14.40;;;7.72;;
84713;SDS011;74938;42.658;23.248;2024-02-23T07:30:33;15.82;;;7.63;;
84713;SDS011;74938;42.658;23.248;2024-02-23T07:35:27;11.77;;;7.28;;
84713;SDS011;74938;42.658;23.248;2024-02-23T07:37:53;15.85;;;7.25;;
84713;SDS011;74938;42.658;23.248;2024-02-23T07:40:20;13.95;;;7.40;;
84713;SDS011;74938;42.658;23.248;2024-02-23T07:42:45;12.70;;;7.68;;
84713;SDS011;74938;42.658;23.248;2024-02-23T07:45:10;15.10;;;8.18;;
84713;SDS011;74938;42.658;23.248;2024-02-23T07:47:36;14.00;;;7.18;;
84713;SDS011;74938;42.658;23.248;2024-02-23T07:50:01;14.10;;;7.70;;
84713;SDS011;74938;42.658;23.248;2024-02-23T07:52:27;16.13;;;8.68;;
84713;SDS011;74938;42.658;23.248;2024-02-23T07:54:52;12.23;;;7.43;;
84713;SDS011;74938;42.658;23.248;2024-02-23T07:57:18;14.75;;;7.63;;
84713;SDS011;74938;42.658;23.248;2024-02-23T07:59:44;14.18;;;8.50;;
84713;SDS011;74938;42.658;23.248;2024-02-23T08:02:09;15.57;;;9.27;;
84713;SDS011;74938;42.658;23.248;2024-02-23T08:04:34;16.58;;;8.93;;
84713;SDS011;74938;42.658;23.248;2024-02-23T08:07:00;14.15;;;8.27;;
84713;SDS011;74938;42.658;23.248;2024-02-23T08:09:25;15.05;;;8.20;;
84713;SDS011;74938;42.658;23.248;2024-02-23T08:11:50;13.90;;;8.40;;
84713;SDS011;74938;42.658;23.248;2024-02-23T08:14:16;13.75;;;8.40;;
84713;SDS011;74938;42.658;23.248;2024-02-23T08:16:41;14.93;;;8.30;;
84713;SDS011;74938;42.658;23.248;2024-02-23T08:19:07;15.50;;;8.43;;
84713;SDS011;74938;42.658;23.248;2024-02-23T08:21:33;14.82;;;8.40;;
84713;SDS011;74938;42.658;23.248;2024-02-23T08:23:58;15.68;;;8.50;;
84713;SDS011;74938;42.658;23.248;2024-02-23T08:26:24;16.33;;;9.45;;
84713;SDS011;74938;42.658;23.248;2024-02-23T08:28:49;17.67;;;9.07;;
84713;SDS011;74938;42.658;23.248;2024-02-23T08:31:14;13.77;;;8.52;;
84713;SDS011;74938;42.658;23.248;2024-02-23T08:33:41;15.15;;;9.85;;
84713;SDS011;74938;42.658;23.248;2024-02-23T08:36:07;15.60;;;9.15;;
84713;SDS011;74938;42.658;23.248;2024-02-23T08:38:32;19.92;;;9.85;;
84713;SDS011;74938;42.658;23.248;2024-02-23T08:40:58;23.33;;;10.75;;
84713;SDS011;74938;42.658;23.248;2024-02-23T08:43:24;16.48;;;9.20;;
84713;SDS011;74938;42.658;23.248;2024-02-23T08:45:49;15.80;;;9.27;;
84713;SDS011;74938;42.658;23.248;2024-02-23T08:48:14;18.23;;;10.27;;
84713;SDS011;74938;42.658;23.248;2024-02-23T08:50:40;14.00;;;8.30;;
84713;SDS011;74938;42.658;23.248;2024-02-23T08:53:05;17.25;;;9.07;;
84713;SDS011;74938;42.658;23.248;2024-02-23T08:55:31;18.30;;;9.27;;
84713;SDS011;74938;42.658;23.248;2024-02-23T08:57:58;14.15;;;7.63;;
84713;SDS011;74938;42.658;23.248;2024-02-23T09:00:23;12.85;;;7.60;;
84713;SDS011;74938;42.658;23.248;2024-02-23T09:02:49;11.80;;;6.32;;
84713;SDS011;74938;42.658;23.248;2024-02-23T09:05:15;25.95;;;12.65;;
84713;SDS011;74938;42.658;23.248;2024-02-23T09:07:40;12.88;;;6.38;;
84713;SDS011;74938;42.658;23.248;2024-02-23T09:10:06;16.33;;;10.35;;
84713;SDS011;74938;42.658;23.248;2024-02-23T09:12:31;10.88;;;6.38;;
84713;SDS011;74938;42.658;23.248;2024-02-23T09:14:57;15.63;;;7.18;;
84713;SDS011;74938;42.658;23.248;2024-02-23T09:17:22;10.40;;;5.63;;
84713;SDS011;74938;42.658;23.248;2024-02-23T09:19:48;9.82;;;5.15;;
84713;SDS011;74938;42.658;23.248;2024-02-23T09:22:13;10.02;;;4.85;;
84713;SDS011;74938;42.658;23.248;2024-02-23T09:24:39;15.02;;;4.97;;
84713;SDS011;74938;42.658;23.248;2024-02-23T09:27:08;9.65;;;4.93;;
84713;SDS011;74938;42.658;23.248;2024-02-23T09:29:34;11.35;;;6.10;;
84713;SDS011;74938;42.658;23.248;2024-02-23T09:31:59;9.18;;;5.80;;
84713;SDS011;74938;42.658;23.248;2024-02-23T09:34:25;7.85;;;4.57;;
84713;SDS011;74938;42.658;23.248;2024-02-23T09:36:51;9.57;;;4.57;;
84713;SDS011;74938;42.658;23.248;2024-02-23T09:39:16;8.45;;;4.65;;
84713;SDS011;74938;42.658;23.248;2024-02-23T09:41:42;10.48;;;4.25;;
84713;SDS011;74938;42.658;23.248;2024-02-23T09:44:08;9.20;;;3.83;;
84713;SDS011;74938;42.658;23.248;2024-02-23T09:46:34;7.18;;;3.42;;
84713;SDS011;74938;42.658;23.248;2024-02-23T09:49:02;7.03;;;3.45;;
84713;SDS011;74938;42.658;23.248;2024-02-23T09:51:28;7.00;;;3.88;;
84713;SDS011;74938;42.658;23.248;2024-02-23T09:53:54;7.00;;;3.40;;
84713;SDS011;74938;42.658;23.248;2024-02-23T09:56:20;7.45;;;3.80;;
84713;SDS011;74938;42.658;23.248;2024-02-23T09:58:49;8.10;;;3.25;;
84713;SDS011;74938;42.658;23.248;2024-02-23T10:01:17;6.57;;;3.55;;
84713;SDS011;74938;42.658;23.248;2024-02-23T10:03:52;6.00;;;3.38;;
84713;SDS011;74938;42.658;23.248;2024-02-23T10:06:21;5.43;;;2.92;;
84713;SDS011;74938;42.658;23.248;2024-02-23T10:08:46;5.55;;;3.33;;
84713;SDS011;74938;42.658;23.248;2024-02-23T10:11:11;6.60;;;3.42;;
84713;SDS011;74938;42.658;23.248;2024-02-23T10:13:37;6.20;;;2.80;;
84713;SDS011;74938;42.658;23.248;2024-02-23T10:16:02;5.53;;;2.90;;
84713;SDS011;74938;42.658;23.248;2024-02-23T10:18:29;6.50;;;3.13;;
84713;SDS011;74938;42.658;23.248;2024-02-23T10:20:54;5.32;;;2.63;;
84713;SDS011;74938;42.658;23.248;2024-02-23T10:23:21;6.25;;;2.97;;
84713;SDS011;74938;42.658;23.248;2024-02-23T10:25:46;4.28;;;2.05;;
84713;SDS011;74938;42.658;23.248;2024-02-23T10:28:12;3.72;;;1.90;;
84713;SDS011;74938;42.658;23.248;2024-02-23T10:30:37;5.88;;;2.88;;
84713;SDS011;74938;42.658;23.248;2024-02-23T10:33:03;4.40;;;2.25;;
84713;SDS011;74938;42.658;23.248;2024-02-23T10:35:30;4.72;;;2.13;;
84713;SDS011;74938;42.658;23.248;2024-02-23T10:37:57;4.15;;;1.83;;
84713;SDS011;74938;42.658;23.248;2024-02-23T10:40:23;3.45;;;1.90;;
84713;SDS011;74938;42.658;23.248;2024-02-23T10:42:52;4.75;;;2.10;;
84713;SDS011;74938;42.658;23.248;2024-02-23T10:45:21;3.95;;;2.08;;
84713;SDS011;74938;42.658;23.248;2024-02-23T10:47:47;3.03;;;1.60;;
84713;SDS011;74938;42.658;23.248;2024-02-23T10:50:17;4.93;;;2.10;;
84713;SDS011;74938;42.658;23.248;2024-02-23T10:52:44;4.30;;;2.28;;
84713;SDS011;74938;42.658;23.248;2024-02-23T10:55:11;3.22;;;1.75;;
84713;SDS011;74938;42.658;23.248;2024-02-23T10:57:37;3.45;;;1.50;;
84713;SDS011;74938;42.658;23.248;2024-02-23T11:00:04;2.78;;;1.48;;
84713;SDS011;74938;42.658;23.248;2024-02-23T11:02:33;2.85;;;1.60;;
84713;SDS011;74938;42.658;23.248;2024-02-23T11:07:29;2.75;;;1.63;;
84713;SDS011;74938;42.658;23.248;2024-02-23T11:09:58;3.72;;;1.92;;
84713;SDS011;74938;42.658;23.248;2024-02-23T11:12:24;4.10;;;1.88;;
84713;SDS011;74938;42.658;23.248;2024-02-23T11:14:50;4.00;;;1.63;;
84713;SDS011;74938;42.658;23.248;2024-02-23T11:17:19;2.40;;;1.50;;
84713;SDS011;74938;42.658;23.248;2024-02-23T11:19:45;3.90;;;1.92;;
84713;SDS011;74938;42.658;23.248;2024-02-23T11:24:42;3.67;;;1.23;;
84713;SDS011;74938;42.658;23.248;2024-02-23T11:27:12;3.08;;;1.70;;
84713;SDS011;74938;42.658;23.248;2024-02-23T11:29:39;4.07;;;2.10;;
84713;SDS011;74938;42.658;23.248;2024-02-23T11:32:12;5.28;;;1.92;;
84713;SDS011;74938;42.658;23.248;2024-02-23T11:34:41;4.80;;;2.22;;
84713;SDS011;74938;42.658;23.248;2024-02-23T11:37:10;2.42;;;1.30;;
84713;SDS011;74938;42.658;23.248;2024-02-23T11:39:39;3.80;;;1.75;;
84713;SDS011;74938;42.658;23.248;2024-02-23T11:42:05;3.78;;;1.83;;
84713;SDS011;74938;42.658;23.248;2024-02-23T11:44:31;3.35;;;1.40;;
84713;SDS011;74938;42.658;23.248;2024-02-23T11:46:58;5.78;;;1.30;;
84713;SDS011;74938;42.658;23.248;2024-02-23T11:49:27;3.88;;;1.55;;
84713;SDS011;74938;42.658;23.248;2024-02-23T11:51:54;2.55;;;1.35;;
84713;SDS011;74938;42.658;23.248;2024-02-23T11:54:20;3.97;;;1.63;;
84713;SDS011;74938;42.658;23.248;2024-02-23T11:56:46;4.15;;;1.58;;
84713;SDS011;74938;42.658;23.248;2024-02-23T11:59:14;2.90;;;1.65;;
84713;SDS011;74938;42.658;23.248;2024-02-23T12:01:39;3.05;;;1.33;;
84713;SDS011;74938;42.658;23.248;2024-02-23T12:04:05;3.15;;;1.42;;
84713;SDS011;74938;42.658;23.248;2024-02-23T12:06:30;2.35;;;1.20;;
84713;SDS011;74938;42.658;23.248;2024-02-23T12:08:57;3.70;;;1.73;;
84713;SDS011;74938;42.658;23.248;2024-02-23T12:11:23;3.28;;;1.30;;
84713;SDS011;74938;42.658;23.248;2024-02-23T12:13:49;2.25;;;1.15;;
84713;SDS011;74938;42.658;23.248;2024-02-23T12:16:16;2.83;;;1.55;;
84713;SDS011;74938;42.658;23.248;2024-02-23T12:18:41;2.58;;;1.73;;
84713;SDS011;74938;42.658;23.248;2024-02-23T12:21:07;2.40;;;1.38;;
84713;SDS011;74938;42.658;23.248;2024-02-23T12:26:09;2.78;;;1.58;;
84713;SDS011;74938;42.658;23.248;2024-02-23T12:28:38;1.85;;;1.20;;
84713;SDS011;74938;42.658;23.248;2024-02-23T12:31:05;2.85;;;1.77;;
84713;SDS011;74938;42.658;23.248;2024-02-23T12:33:32;3.03;;;1.70;;
84713;SDS011;74938;42.658;23.248;2024-02-23T12:35:59;3.92;;;1.77;;
84713;SDS011;74938;42.658;23.248;2024-02-23T12:38:26;3.35;;;1.60;;
84713;SDS011;74938;42.658;23.248;2024-02-23T12:40:51;3.15;;;1.35;;
84713;SDS011;74938;42.658;23.248;2024-02-23T12:43:17;2.80;;;1.50;;
84713;SDS011;74938;42.658;23.248;2024-02-23T12:45:46;2.75;;;1.20;;
84713;SDS011;74938;42.658;23.248;2024-02-23T12:48:14;3.75;;;1.48;;
84713;SDS011;74938;42.658;23.248;2024-02-23T12:50:43;4.95;;;1.95;;
84713;SDS011;74938;42.658;23.248;2024-02-23T12:53:09;3.85;;;1.70;;
84713;SDS011;74938;42.658;23.248;2024-02-23T12:55:55;3.83;;;1.83;;
84713;SDS011;74938;42.658;23.248;2024-02-23T12:58:21;5.50;;;1.50;;
84713;SDS011;74938;42.658;23.248;2024-02-23T13:00:46;5.00;;;1.80;;
84713;SDS011;74938;42.658;23.248;2024-02-23T13:03:11;3.10;;;1.52;;
84713;SDS011;74938;42.658;23.248;2024-02-23T13:05:37;3.05;;;1.52;;
84713;SDS011;74938;42.658;23.248;2024-02-23T13:08:02;3.70;;;1.70;;
84713;SDS011;74938;42.658;23.248;2024-02-23T13:10:28;3.72;;;1.50;;
84713;SDS011;74938;42.658;23.248;2024-02-23T13:12:53;3.17;;;1.50;;
84713;SDS011;74938;42.658;23.248;2024-02-23T13:15:18;2.13;;;1.17;;
84713;SDS011;74938;42.658;23.248;2024-02-23T13:17:44;3.03;;;1.48;;
84713;SDS011;74938;42.658;23.248;2024-02-23T13:20:09;2.45;;;1.30;;
84713;SDS011;74938;42.658;23.248;2024-02-23T13:22:37;3.20;;;1.70;;
84713;SDS011;74938;42.658;23.248;2024-02-23T13:25:03;3.30;;;1.75;;
84713;SDS011;74938;42.658;23.248;2024-02-23T13:27:29;3.70;;;1.60;;
84713;SDS011;74938;42.658;23.248;2024-02-23T13:29:54;5.28;;;1.67;;
84713;SDS011;74938;42.658;23.248;2024-02-23T13:32:20;3.65;;;1.50;;
84713;SDS011;74938;42.658;23.248;2024-02-23T13:34:45;5.80;;;1.75;;
84713;SDS011;74938;42.658;23.248;2024-02-23T13:37:11;4.13;;;2.10;;
84713;SDS011;74938;42.658;23.248;2024-02-23T13:39:37;3.42;;;1.45;;
84713;SDS011;74938;42.658;23.248;2024-02-23T13:42:02;4.40;;;1.92;;
84713;SDS011;74938;42.658;23.248;2024-02-23T13:44:30;3.10;;;1.60;;
84713;SDS011;74938;42.658;23.248;2024-02-23T13:46:56;6.32;;;2.47;;
84713;SDS011;74938;42.658;23.248;2024-02-23T13:49:21;3.45;;;1.75;;
84713;SDS011;74938;42.658;23.248;2024-02-23T13:51:47;3.33;;;1.88;;
84713;SDS011;74938;42.658;23.248;2024-02-23T13:54:12;3.88;;;1.40;;
84713;SDS011;74938;42.658;23.248;2024-02-23T13:56:38;3.40;;;1.70;;
84713;SDS011;74938;42.658;23.248;2024-02-23T13:59:03;3.97;;;1.70;;
84713;SDS011;74938;42.658;23.248;2024-02-23T14:01:29;5.00;;;2.00;;
84713;SDS011;74938;42.658;23.248;2024-02-23T14:03:54;4.80;;;1.67;;
84713;SDS011;74938;42.658;23.248;2024-02-23T14:06:19;2.40;;;1.40;;
84713;SDS011;74938;42.658;23.248;2024-02-23T14:08:45;5.10;;;1.88;;
84713;SDS011;74938;42.658;23.248;2024-02-23T14:11:12;3.40;;;1.60;;
84713;SDS011;74938;42.658;23.248;2024-02-23T14:13:37;4.32;;;1.77;;
84713;SDS011;74938;42.658;23.248;2024-02-23T14:16:03;3.47;;;1.45;;
84713;SDS011;74938;42.658;23.248;2024-02-23T14:18:30;4.47;;;1.38;;
84713;SDS011;74938;42.658;23.248;2024-02-23T14:20:57;4.75;;;1.65;;
84713;SDS011;74938;42.658;23.248;2024-02-23T14:23:22;6.18;;;1.80;;
84713;SDS011;74938;42.658;23.248;2024-02-23T14:25:48;3.38;;;1.52;;
84713;SDS011;74938;42.658;23.248;2024-02-23T14:28:13;3.55;;;1.95;;
84713;SDS011;74938;42.658;23.248;2024-02-23T14:30:39;10.30;;;4.13;;